createdAt,value
2022-10-23T00:00:54.845Z,14.60
2022-10-23T00:04:36.693Z,14.60
2022-10-23T00:08:18.780Z,14.50
2022-10-23T00:12:00.592Z,14.60
2022-10-23T00:15:42.483Z,14.50
2022-10-23T00:19:24.430Z,14.50
2022-10-23T00:23:06.303Z,14.50
2022-10-23T00:26:51.008Z,14.50
2022-10-23T00:30:32.888Z,14.50
2022-10-23T00:34:14.856Z,14.50
2022-10-23T00:37:56.752Z,14.50
2022-10-23T00:41:38.689Z,14.50
2022-10-23T00:45:26.779Z,14.50
2022-10-23T00:49:09.889Z,14.50
2022-10-23T00:52:54.299Z,14.50
2022-10-23T00:56:39.972Z,14.50
2022-10-23T01:00:29.702Z,14.50
2022-10-23T01:04:12.154Z,14.50
2022-10-23T01:08:12.242Z,14.50
2022-10-23T01:12:15.343Z,14.60
2022-10-23T01:16:10.346Z,14.60
2022-10-23T01:20:28.424Z,14.60
2022-10-23T01:24:16.415Z,14.60
2022-10-23T01:28:08.216Z,14.60
2022-10-23T01:32:01.849Z,14.60
2022-10-23T01:35:50.206Z,14.60
2022-10-23T01:39:38.607Z,14.60
2022-10-23T01:43:32.268Z,14.70
2022-10-23T01:47:18.967Z,14.70
2022-10-23T01:51:05.266Z,14.70
2022-10-23T01:54:50.222Z,14.70
2022-10-23T01:58:34.747Z,14.70
2022-10-23T02:02:18.976Z,14.80
2022-10-23T02:06:00.927Z,14.80
2022-10-23T02:09:42.872Z,14.70
2022-10-23T02:13:53.267Z,14.70
2022-10-23T02:18:29.396Z,14.70
2022-10-23T02:22:18.537Z,14.70
2022-10-23T02:26:08.203Z,14.70
2022-10-23T02:29:57.967Z,14.70
2022-10-23T02:33:40.583Z,14.70
2022-10-23T02:37:22.766Z,14.70
2022-10-23T02:41:21.264Z,14.70
2022-10-23T02:45:19.215Z,14.70
2022-10-23T02:49:14.959Z,14.70
2022-10-23T02:53:14.811Z,14.70
2022-10-23T02:57:24.256Z,14.70
2022-10-23T03:01:19.742Z,14.70
2022-10-23T03:05:04.579Z,14.70
2022-10-23T03:08:54.124Z,14.80
2022-10-23T03:12:36.603Z,14.80
2022-10-23T03:16:18.485Z,14.80
2022-10-23T03:20:00.432Z,14.80
2022-10-23T03:23:42.346Z,14.90
2022-10-23T03:27:24.214Z,14.90
2022-10-23T03:31:06.257Z,14.90
2022-10-23T03:34:48.157Z,14.80
2022-10-23T03:38:30.052Z,14.90
2022-10-23T03:42:12.063Z,14.90
2022-10-23T03:45:55.494Z,14.90
2022-10-23T03:49:37.993Z,14.90
2022-10-23T03:53:19.830Z,14.90
2022-10-23T03:57:02.307Z,14.90
2022-10-23T04:00:44.249Z,14.90
2022-10-23T04:04:26.427Z,15.00
2022-10-23T04:08:08.252Z,14.90
2022-10-23T04:11:50.578Z,15.00
2022-10-23T04:15:32.403Z,15.00
2022-10-23T04:19:14.317Z,15.00
2022-10-23T04:22:56.124Z,15.00
2022-10-23T04:26:38.043Z,15.00
2022-10-23T04:30:19.906Z,15.00
2022-10-23T04:34:01.851Z,15.00
2022-10-23T04:37:44.427Z,15.00
2022-10-23T04:41:27.397Z,15.00
2022-10-23T04:45:09.555Z,15.00
2022-10-23T04:48:51.394Z,15.00
2022-10-23T04:52:33.287Z,15.00
2022-10-23T04:56:15.926Z,15.00
2022-10-23T04:59:57.738Z,15.00
2022-10-23T05:03:39.630Z,15.00
2022-10-23T05:11:08.395Z,15.00
2022-10-23T05:14:50.208Z,15.10
2022-10-23T05:18:36.887Z,15.10
2022-10-23T05:22:20.887Z,15.10
2022-10-23T05:26:03.662Z,15.10
2022-10-23T05:29:45.629Z,15.10
2022-10-23T05:33:28.265Z,15.10
2022-10-23T05:37:12.813Z,15.10
2022-10-23T05:40:55.182Z,15.10
2022-10-23T05:44:37.327Z,14.80
2022-10-23T05:48:30.024Z,14.50
2022-10-23T05:52:16.047Z,14.30
2022-10-23T05:56:03.810Z,14.30
2022-10-23T05:59:45.712Z,14.20
2022-10-23T06:03:27.564Z,14.10
2022-10-23T06:07:09.380Z,14.00
2022-10-23T06:10:52.068Z,14.00
2022-10-23T06:14:33.925Z,13.90
2022-10-23T06:18:16.361Z,13.90
2022-10-23T06:21:58.241Z,14.00
2022-10-23T06:25:40.379Z,13.90
2022-10-23T06:29:22.606Z,13.90
2022-10-23T06:33:05.970Z,13.80
2022-10-23T06:36:48.453Z,13.80
2022-10-23T06:40:30.453Z,13.70
2022-10-23T06:44:12.484Z,13.70
2022-10-23T06:47:54.425Z,13.70
2022-10-23T06:51:36.279Z,13.60
2022-10-23T06:55:19.336Z,13.50
2022-10-23T06:59:01.704Z,13.40
2022-10-23T07:02:43.896Z,13.30
2022-10-23T07:06:26.034Z,13.30
2022-10-23T07:10:08.499Z,13.30
2022-10-23T07:13:50.437Z,13.40
2022-10-23T07:17:32.301Z,13.30
2022-10-23T07:21:14.676Z,13.30
2022-10-23T07:24:56.649Z,13.30
2022-10-23T07:28:38.999Z,13.30
2022-10-23T07:32:21.512Z,13.40
2022-10-23T07:36:08.377Z,13.40
2022-10-23T07:39:50.248Z,13.40
2022-10-23T07:43:45.495Z,13.50
2022-10-23T07:47:27.984Z,13.50
2022-10-23T07:51:14.168Z,13.60
2022-10-23T07:55:03.872Z,13.60
2022-10-23T07:58:46.340Z,13.60
2022-10-23T08:02:29.032Z,13.60
2022-10-23T08:06:18.232Z,13.70
2022-10-23T08:10:00.505Z,13.60
2022-10-23T08:13:43.895Z,13.60
2022-10-23T08:17:33.682Z,13.60
2022-10-23T08:21:16.732Z,13.60
2022-10-23T08:25:05.333Z,13.50
2022-10-23T08:28:48.918Z,13.40
2022-10-23T08:32:31.547Z,13.40
2022-10-23T08:36:19.619Z,13.30
2022-10-23T08:40:21.015Z,13.40
2022-10-23T08:44:37.739Z,13.90
2022-10-23T08:53:36.278Z,15.60
2022-10-23T08:57:21.886Z,17.30
2022-10-23T09:01:28.652Z,18.90
2022-10-23T09:05:38.679Z,20.30
2022-10-23T09:09:44.753Z,21.40
2022-10-23T09:13:52.172Z,22.30
2022-10-23T09:17:41.506Z,23.00
2022-10-23T09:21:44.715Z,23.70
2022-10-23T09:29:39.811Z,22.30
2022-10-23T09:33:28.174Z,21.60
2022-10-23T09:37:12.537Z,21.60
2022-10-23T09:40:57.682Z,22.10
2022-10-23T09:45:04.803Z,23.00
2022-10-23T09:48:59.846Z,23.70
2022-10-23T09:53:19.000Z,24.00
2022-10-23T09:58:06.603Z,23.00
2022-10-23T10:02:17.895Z,21.80
2022-10-23T10:06:02.583Z,20.60
2022-10-23T10:09:50.978Z,19.90
2022-10-23T10:13:37.472Z,19.40
2022-10-23T10:17:24.485Z,19.10
2022-10-23T10:25:35.911Z,18.60
2022-10-23T10:29:30.053Z,18.60
2022-10-23T10:33:31.047Z,18.50
2022-10-23T10:37:42.221Z,18.40
2022-10-23T10:41:42.968Z,18.20
2022-10-23T10:45:52.015Z,18.10
2022-10-23T10:49:54.312Z,17.90
2022-10-23T10:54:09.845Z,17.70
2022-10-23T10:59:01.677Z,17.50
2022-10-23T11:02:48.403Z,17.40
2022-10-23T11:06:36.676Z,17.30
2022-10-23T11:10:19.381Z,17.20
2022-10-23T11:14:03.172Z,17.20
2022-10-23T11:17:54.281Z,17.10
2022-10-23T11:26:57.818Z,17.00
2022-10-23T11:31:17.849Z,17.00
2022-10-23T11:35:48.911Z,17.00
2022-10-23T11:39:36.717Z,17.10
2022-10-23T11:43:41.895Z,17.20
2022-10-23T11:47:52.783Z,17.30
2022-10-23T11:51:40.105Z,17.30
2022-10-23T11:55:25.896Z,17.30
2022-10-23T12:07:46.594Z,17.30
2022-10-23T12:15:32.937Z,17.30
2022-10-23T12:20:07.863Z,17.30
2022-10-23T12:24:17.558Z,17.40
2022-10-23T12:33:17.623Z,17.30
2022-10-23T12:37:24.163Z,17.20
2022-10-23T12:41:09.964Z,17.10
2022-10-23T12:49:26.603Z,16.90
2022-10-23T13:01:33.599Z,16.80
2022-10-23T13:05:33.874Z,16.80
2022-10-23T13:09:41.033Z,16.90
2022-10-23T13:13:27.495Z,16.90
2022-10-23T13:17:12.170Z,16.90
2022-10-23T13:20:54.068Z,17.00
2022-10-23T13:24:43.699Z,17.00
2022-10-23T13:28:27.339Z,17.00
2022-10-23T13:32:13.139Z,17.00
2022-10-23T13:40:27.840Z,17.10
2022-10-23T13:44:17.827Z,17.10
2022-10-23T13:48:00.172Z,17.20
2022-10-23T13:52:07.764Z,17.20
2022-10-23T13:55:56.268Z,17.30
2022-10-23T13:59:59.561Z,17.40
2022-10-23T14:03:42.103Z,17.50
2022-10-23T14:07:30.327Z,17.50
2022-10-23T14:11:19.204Z,17.60
2022-10-23T14:15:01.502Z,17.50
2022-10-23T14:18:47.442Z,17.60
2022-10-23T14:22:32.044Z,17.60
2022-10-23T14:26:16.967Z,17.50
2022-10-23T14:30:04.042Z,17.40
2022-10-23T14:33:47.410Z,17.30
2022-10-23T14:37:33.493Z,17.20
2022-10-23T14:41:18.782Z,17.00
2022-10-23T14:45:05.436Z,16.80
2022-10-23T14:48:50.974Z,16.70
2022-10-23T14:52:55.851Z,16.70
2022-10-23T14:56:40.632Z,16.60
2022-10-23T15:00:30.035Z,16.60
2022-10-23T15:04:14.775Z,16.50
2022-10-23T15:07:59.206Z,16.50
2022-10-23T15:12:04.862Z,16.40
2022-10-23T15:15:47.554Z,16.40
2022-10-23T15:19:36.642Z,16.40
2022-10-23T15:23:21.255Z,16.30
2022-10-23T15:27:03.843Z,16.30
2022-10-23T15:30:52.508Z,16.30
2022-10-23T15:34:42.896Z,16.30
2022-10-23T15:38:26.389Z,16.20
2022-10-23T15:42:08.500Z,16.10
2022-10-23T15:45:54.033Z,16.10
2022-10-23T15:49:37.152Z,16.00
2022-10-23T15:53:23.161Z,16.00
2022-10-23T15:57:10.219Z,16.00
2022-10-23T16:00:52.969Z,15.90
2022-10-23T16:04:38.541Z,15.80
2022-10-23T16:08:20.368Z,15.70
2022-10-23T16:12:02.484Z,15.70
2022-10-23T16:15:44.654Z,15.60
2022-10-23T16:19:26.775Z,15.60
2022-10-23T16:23:08.640Z,15.50
2022-10-23T16:26:53.387Z,15.40
2022-10-23T16:30:41.926Z,15.20
2022-10-23T16:34:23.990Z,14.80
2022-10-23T16:38:06.034Z,14.60
2022-10-23T16:41:48.231Z,14.50
2022-10-23T16:45:33.223Z,14.40
2022-10-23T16:49:17.718Z,14.30
2022-10-23T16:52:59.680Z,14.30
2022-10-23T16:56:42.175Z,14.30
2022-10-23T17:00:24.328Z,14.20
2022-10-23T17:04:26.727Z,14.20
2022-10-23T17:08:08.967Z,14.20
2022-10-23T17:12:02.196Z,14.10
2022-10-23T17:15:44.256Z,14.10
2022-10-23T17:19:45.530Z,14.10
2022-10-23T17:23:28.946Z,14.00
2022-10-23T17:27:10.918Z,13.90
2022-10-23T17:30:53.325Z,13.80
2022-10-23T17:34:35.349Z,13.80
2022-10-23T17:38:18.173Z,13.70
2022-10-23T17:42:00.147Z,13.60
2022-10-23T17:45:45.310Z,13.50
2022-10-23T17:49:27.531Z,13.40
2022-10-23T17:53:09.426Z,13.40
2022-10-23T17:56:51.473Z,13.30
2022-10-23T18:00:37.390Z,13.30
2022-10-23T18:04:21.136Z,13.20
2022-10-23T18:08:03.084Z,13.20
2022-10-23T18:11:48.122Z,13.10
2022-10-23T18:15:30.399Z,13.10
2022-10-23T18:19:12.844Z,13.00
2022-10-23T18:22:54.783Z,12.90
2022-10-23T18:26:40.030Z,12.90
2022-10-23T18:30:21.956Z,12.90
2022-10-23T18:34:11.967Z,12.80
2022-10-23T18:37:53.971Z,12.80
2022-10-23T18:41:39.291Z,12.80
2022-10-23T18:45:21.474Z,12.80
2022-10-23T18:49:04.328Z,12.70
2022-10-23T18:52:46.501Z,12.70
2022-10-23T18:56:28.665Z,12.60
2022-10-23T19:00:12.127Z,12.50
2022-10-23T19:07:46.543Z,12.40
2022-10-23T19:11:29.131Z,12.40
2022-10-23T19:15:11.121Z,12.30
2022-10-23T19:19:03.054Z,12.40
2022-10-23T19:22:47.434Z,12.40
2022-10-23T19:26:31.632Z,12.40
2022-10-23T19:30:20.576Z,12.40
2022-10-23T19:34:04.624Z,12.50
2022-10-23T19:37:47.119Z,12.50
2022-10-23T19:41:31.170Z,12.60
2022-10-23T19:45:14.905Z,12.60
2022-10-23T19:48:57.146Z,12.60
2022-10-23T19:52:39.136Z,12.70
2022-10-23T19:56:21.103Z,12.70
2022-10-23T20:00:04.491Z,12.70
2022-10-23T20:03:48.813Z,12.70
2022-10-23T20:07:30.704Z,12.70
2022-10-23T20:11:20.630Z,12.70
2022-10-23T20:15:02.681Z,12.60
2022-10-23T20:18:44.878Z,12.60
2022-10-23T20:22:26.744Z,12.60
2022-10-23T20:26:10.932Z,12.50
2022-10-23T20:29:52.819Z,12.50
2022-10-23T20:33:36.688Z,12.50
2022-10-23T20:37:18.773Z,12.50
2022-10-23T20:41:05.733Z,12.50
2022-10-23T20:44:47.595Z,12.60
2022-10-23T20:48:29.473Z,12.60
2022-10-23T20:52:11.391Z,12.60
2022-10-23T20:55:53.340Z,12.60
2022-10-23T20:59:35.499Z,12.60
2022-10-23T21:03:17.368Z,12.70
2022-10-23T21:07:16.427Z,12.70
2022-10-23T21:10:58.400Z,12.70
2022-10-23T21:14:40.229Z,12.70
2022-10-23T21:18:44.853Z,12.70
2022-10-23T21:22:27.518Z,12.60
2022-10-23T21:26:09.466Z,12.60
2022-10-23T21:29:51.342Z,12.70
2022-10-23T21:33:34.119Z,12.60
2022-10-23T21:37:16.032Z,12.60
2022-10-23T21:41:09.212Z,12.60
2022-10-23T21:44:51.026Z,12.60
2022-10-23T21:48:33.487Z,12.70
2022-10-23T21:52:17.675Z,12.70
2022-10-23T21:56:04.992Z,12.80
2022-10-23T21:59:48.381Z,12.80
2022-10-23T22:03:30.317Z,12.90
2022-10-23T22:07:14.918Z,12.90
2022-10-23T22:10:56.860Z,12.90
2022-10-23T22:14:42.737Z,13.00
2022-10-23T22:18:24.715Z,13.00
2022-10-23T22:22:06.932Z,12.90
2022-10-23T22:25:49.021Z,12.90
2022-10-23T22:29:31.190Z,12.90
2022-10-23T22:33:13.144Z,12.90
2022-10-23T22:36:55.559Z,12.90
2022-10-23T22:40:40.099Z,12.90
2022-10-23T22:44:24.950Z,12.80
2022-10-23T22:48:08.458Z,12.80
2022-10-23T22:51:50.285Z,12.80
2022-10-23T22:55:32.163Z,12.90
2022-10-23T22:59:14.071Z,12.90
2022-10-23T23:02:58.485Z,12.90
2022-10-23T23:06:40.508Z,13.00
2022-10-23T23:10:22.426Z,13.00
2022-10-23T23:14:04.331Z,13.00
2022-10-23T23:17:46.582Z,13.00
2022-10-23T23:21:29.972Z,12.90
2022-10-23T23:25:12.124Z,12.90
2022-10-23T23:28:54.779Z,12.80
2022-10-23T23:32:37.030Z,12.90
2022-10-23T23:36:22.050Z,12.80
2022-10-23T23:40:04.418Z,12.80
2022-10-23T23:43:46.336Z,12.80
2022-10-23T23:47:28.304Z,12.80
2022-10-23T23:51:10.163Z,12.80
2022-10-23T23:54:52.160Z,12.70
2022-10-23T23:58:33.994Z,12.80
